createdAt,value
2019-03-20T00:00:07.957Z,80.02
2019-03-20T00:05:05.070Z,79.73
2019-03-20T00:10:01.091Z,79.66
2019-03-20T00:14:57.003Z,79.03
2019-03-20T00:19:52.937Z,78.34
2019-03-20T00:24:49.579Z,78.96
2019-03-20T00:29:45.479Z,79.18
2019-03-20T00:34:41.394Z,77.89
2019-03-20T00:39:37.405Z,79.27
2019-03-20T00:44:33.315Z,80.63
2019-03-20T00:49:29.238Z,81.50
2019-03-20T00:54:31.291Z,82.01
2019-03-20T00:59:27.281Z,82.64
2019-03-20T01:04:23.207Z,83.00
2019-03-20T01:09:19.121Z,81.25
2019-03-20T01:14:15.047Z,81.16
2019-03-20T01:19:10.958Z,82.02
2019-03-20T01:24:11.201Z,83.21
2019-03-20T01:29:07.214Z,84.25
2019-03-20T01:34:03.259Z,84.62
2019-03-20T01:38:59.165Z,84.20
2019-03-20T01:43:55.068Z,83.29
2019-03-20T01:48:50.978Z,84.24
2019-03-20T01:53:48.536Z,84.16
2019-03-20T01:58:44.571Z,82.96
2019-03-20T02:03:40.956Z,83.80
2019-03-20T02:08:36.991Z,83.84
2019-03-20T02:13:32.904Z,84.93
2019-03-20T02:18:28.821Z,86.00
2019-03-20T02:23:24.707Z,86.45
2019-03-20T02:28:20.767Z,84.17
2019-03-20T02:33:16.675Z,84.80
2019-03-20T02:38:12.622Z,85.28
2019-03-20T02:43:08.503Z,83.94
2019-03-20T02:48:04.527Z,85.42
2019-03-20T02:53:00.445Z,85.79
2019-03-20T02:57:56.383Z,86.03
2019-03-20T03:02:52.296Z,86.31
2019-03-20T03:07:48.253Z,86.93
2019-03-20T03:12:44.262Z,87.57
2019-03-20T03:17:40.166Z,86.70
2019-03-20T03:22:36.079Z,87.34
2019-03-20T03:27:31.995Z,86.00
2019-03-20T03:32:27.951Z,87.00
2019-03-20T03:37:23.910Z,87.25
2019-03-20T03:42:19.826Z,85.70
2019-03-20T03:47:15.731Z,85.93
2019-03-20T03:52:11.667Z,85.10
2019-03-20T03:57:07.598Z,86.43
2019-03-20T04:02:03.607Z,87.20
2019-03-20T04:06:59.579Z,87.43
2019-03-20T04:11:55.487Z,87.38
2019-03-20T04:16:51.412Z,88.22
2019-03-20T04:21:47.349Z,87.94
2019-03-20T04:26:43.258Z,87.93
2019-03-20T04:31:39.229Z,87.77
2019-03-20T04:36:46.764Z,87.68
2019-03-20T04:41:33.003Z,87.26
2019-03-20T04:46:29.002Z,86.92
2019-03-20T04:51:24.911Z,85.00
2019-03-20T04:56:20.853Z,85.27
2019-03-20T05:01:16.762Z,84.13
2019-03-20T05:06:12.719Z,84.75
2019-03-20T05:11:09.022Z,84.63
2019-03-20T05:16:04.933Z,84.26
2019-03-20T05:21:00.858Z,83.53
2019-03-20T05:25:56.779Z,83.67
2019-03-20T05:30:52.718Z,83.42
2019-03-20T05:35:48.626Z,83.72
2019-03-20T05:40:44.533Z,83.41
2019-03-20T05:45:40.424Z,83.36
2019-03-20T05:50:36.347Z,83.96
2019-03-20T05:55:32.294Z,82.02
2019-03-20T06:00:30.132Z,80.33
2019-03-20T06:05:26.047Z,75.78
2019-03-20T06:10:21.960Z,70.50
2019-03-20T06:15:17.883Z,66.70
2019-03-20T06:20:14.097Z,62.45
2019-03-20T06:25:11.767Z,59.31
2019-03-20T06:30:18.183Z,59.74
2019-03-20T06:35:14.203Z,54.58
2019-03-20T06:40:17.129Z,51.56
2019-03-20T06:45:17.108Z,49.89
2019-03-20T06:50:15.454Z,53.31
2019-03-20T06:55:11.473Z,54.87
2019-03-20T07:00:32.086Z,59.45
2019-03-20T07:05:48.544Z,60.61
2019-03-20T07:10:50.872Z,64.27
2019-03-20T07:15:46.782Z,65.53
2019-03-20T07:20:42.702Z,66.87
2019-03-20T07:25:38.632Z,67.14
2019-03-20T07:30:34.542Z,68.32
2019-03-20T07:35:30.560Z,68.72
2019-03-20T07:40:26.466Z,69.32
2019-03-20T07:45:22.381Z,68.46
2019-03-20T07:50:18.290Z,68.56
2019-03-20T07:55:14.197Z,68.20
2019-03-20T08:00:12.120Z,67.72
2019-03-20T08:05:09.040Z,66.74
2019-03-20T08:10:11.987Z,65.71
2019-03-20T08:15:13.063Z,66.07
2019-03-20T08:20:11.574Z,66.11
2019-03-20T08:25:07.731Z,66.65
2019-03-20T08:30:07.452Z,66.16
2019-03-20T08:35:05.770Z,64.88
2019-03-20T08:40:02.798Z,64.02
2019-03-20T08:44:58.720Z,63.24
2019-03-20T08:49:54.632Z,62.63
2019-03-20T08:54:51.245Z,63.06
2019-03-20T08:59:47.223Z,61.86
2019-03-20T09:04:43.142Z,61.27
2019-03-20T09:09:39.049Z,60.72
2019-03-20T09:14:34.994Z,61.45
2019-03-20T09:19:30.900Z,61.39
2019-03-20T09:24:27.663Z,59.96
2019-03-20T09:29:23.588Z,58.73
2019-03-20T09:34:19.497Z,60.45
2019-03-20T09:39:15.413Z,58.83
2019-03-20T09:44:11.322Z,59.70
2019-03-20T09:49:07.263Z,58.06
2019-03-20T09:54:09.329Z,58.50
2019-03-20T09:59:05.379Z,58.36
2019-03-20T10:04:01.349Z,58.67
2019-03-20T10:08:57.246Z,57.91
2019-03-20T10:13:53.255Z,57.27
2019-03-20T10:18:49.176Z,58.30
2019-03-20T10:23:46.562Z,59.61
2019-03-20T10:28:42.571Z,59.38
2019-03-20T10:33:38.478Z,59.10
2019-03-20T10:38:35.263Z,59.66
2019-03-20T10:43:31.182Z,60.65
2019-03-20T10:48:27.199Z,60.12
2019-03-20T10:53:23.113Z,60.42
2019-03-20T10:58:19.063Z,59.66
2019-03-20T11:03:15.065Z,61.10
2019-03-20T11:08:12.926Z,59.32
2019-03-20T11:13:08.839Z,59.62
2019-03-20T11:18:04.754Z,58.98
2019-03-20T11:23:00.764Z,60.04
2019-03-20T11:27:56.685Z,60.91
2019-03-20T11:32:52.799Z,61.26
2019-03-20T11:37:48.769Z,61.25
2019-03-20T11:42:44.673Z,60.41
2019-03-20T11:47:40.584Z,60.04
2019-03-20T11:52:36.516Z,61.11
2019-03-20T11:57:32.454Z,60.54
2019-03-20T12:02:28.734Z,60.58
2019-03-20T12:07:24.887Z,61.02
2019-03-20T12:12:20.810Z,61.68
2019-03-20T12:17:16.749Z,60.77
2019-03-20T12:22:12.671Z,61.57
2019-03-20T12:27:15.130Z,60.77
2019-03-20T12:32:06.390Z,61.21
2019-03-20T12:37:02.312Z,61.16
2019-03-20T12:41:58.224Z,62.06
2019-03-20T12:46:54.132Z,62.50
2019-03-20T12:51:50.046Z,62.53
2019-03-20T12:56:46.000Z,63.00
2019-03-20T13:01:41.910Z,63.33
2019-03-20T13:06:39.352Z,63.22
2019-03-20T13:11:35.316Z,62.38
2019-03-20T13:16:32.048Z,62.95
2019-03-20T13:21:28.380Z,62.96
2019-03-20T13:26:24.457Z,62.79
2019-03-20T13:31:21.973Z,63.52
2019-03-20T13:36:18.500Z,63.83
2019-03-20T13:41:14.389Z,63.01
2019-03-20T13:46:10.352Z,63.54
2019-03-20T13:51:06.271Z,62.54
2019-03-20T13:56:02.349Z,62.01
2019-03-20T14:00:58.263Z,63.40
2019-03-20T14:05:54.185Z,62.61
2019-03-20T14:10:50.848Z,62.79
2019-03-20T14:15:46.978Z,63.50
2019-03-20T14:20:42.912Z,63.92
2019-03-20T14:25:38.889Z,63.97
2019-03-20T14:30:34.832Z,64.16
2019-03-20T14:35:30.755Z,63.55
2019-03-20T14:40:37.651Z,63.57
2019-03-20T14:45:28.342Z,62.74
2019-03-20T14:50:28.346Z,61.50
2019-03-20T14:55:24.390Z,62.00
2019-03-20T15:00:23.334Z,62.04
2019-03-20T15:05:19.278Z,62.11
2019-03-20T15:10:45.729Z,63.28
2019-03-20T15:15:41.317Z,63.48
2019-03-20T15:20:37.258Z,64.25
2019-03-20T15:25:33.195Z,63.99
2019-03-20T15:30:29.822Z,63.91
2019-03-20T15:35:25.965Z,64.42
2019-03-20T15:40:26.453Z,64.26
2019-03-20T15:45:22.383Z,65.04
2019-03-20T15:50:19.775Z,65.32
2019-03-20T15:55:22.605Z,64.56
2019-03-20T16:00:19.854Z,65.10
2019-03-20T16:05:17.171Z,65.20
2019-03-20T16:10:22.019Z,65.09
2019-03-20T16:15:19.844Z,65.15
2019-03-20T16:20:15.972Z,65.01
2019-03-20T16:25:18.973Z,65.04
2019-03-20T16:30:18.009Z,65.50
2019-03-20T16:35:13.937Z,65.39
2019-03-20T16:40:12.659Z,65.49
2019-03-20T16:45:35.217Z,65.54
2019-03-20T16:50:31.203Z,65.79
2019-03-20T16:55:27.422Z,65.53
2019-03-20T17:00:30.781Z,66.12
2019-03-20T17:05:31.020Z,65.04
2019-03-20T17:10:48.798Z,64.63
2019-03-20T17:15:52.048Z,65.10
2019-03-20T17:20:53.126Z,65.71
2019-03-20T17:25:51.166Z,66.27
2019-03-20T17:30:52.492Z,66.37
2019-03-20T17:35:52.707Z,66.52
2019-03-20T17:40:49.944Z,66.77
2019-03-20T17:45:51.725Z,67.30
2019-03-20T17:50:50.248Z,67.67
2019-03-20T17:55:51.894Z,68.26
2019-03-20T18:00:49.871Z,69.44
2019-03-20T18:05:45.946Z,69.63
2019-03-20T18:10:41.882Z,68.16
2019-03-20T18:15:37.810Z,68.65
2019-03-20T18:20:33.966Z,68.69
2019-03-20T18:25:30.415Z,68.19
2019-03-20T18:30:28.785Z,68.32
2019-03-20T18:35:24.801Z,68.55
2019-03-20T18:40:25.207Z,68.89
2019-03-20T18:45:25.966Z,70.05
2019-03-20T18:50:22.771Z,69.85
2019-03-20T18:55:19.858Z,69.45
2019-03-20T19:00:54.860Z,68.73
2019-03-20T19:05:57.307Z,70.29
2019-03-20T19:10:53.362Z,71.59
2019-03-20T19:15:49.386Z,72.58
2019-03-20T19:20:45.382Z,73.11
2019-03-20T19:25:41.645Z,73.64
2019-03-20T19:30:37.724Z,74.05
2019-03-20T19:35:33.661Z,74.36
2019-03-20T19:40:29.598Z,74.57
2019-03-20T19:45:25.521Z,74.78
2019-03-20T19:50:22.347Z,75.09
2019-03-20T19:55:19.079Z,75.39
2019-03-20T20:00:21.431Z,75.52
2019-03-20T20:05:17.453Z,75.71
2019-03-20T20:10:17.501Z,75.85
2019-03-20T20:15:27.212Z,75.82
2019-03-20T20:20:28.929Z,75.42
2019-03-20T20:25:25.550Z,75.95
2019-03-20T20:30:21.536Z,76.11
2019-03-20T20:35:17.456Z,76.04
2019-03-20T20:40:17.819Z,75.81
2019-03-20T20:45:13.742Z,75.96
2019-03-20T20:50:12.564Z,75.51
2019-03-20T20:55:11.610Z,75.26
2019-03-20T21:00:16.778Z,74.90
2019-03-20T21:05:12.808Z,74.84
2019-03-20T21:10:14.051Z,74.99
2019-03-20T21:15:33.362Z,75.07
2019-03-20T21:20:29.286Z,75.03
2019-03-20T21:25:26.302Z,74.94
2019-03-20T21:30:51.217Z,75.01
2019-03-20T21:36:07.817Z,74.82
2019-03-20T21:41:16.756Z,74.95
2019-03-20T21:46:19.443Z,75.37
2019-03-20T21:51:15.963Z,75.83
2019-03-20T21:56:18.492Z,76.05
2019-03-20T22:01:39.040Z,76.08
2019-03-20T22:06:56.574Z,76.12
2019-03-20T22:12:15.936Z,76.06
2019-03-20T22:17:32.569Z,75.80
2019-03-20T22:22:35.284Z,75.94
2019-03-20T22:27:35.042Z,76.31
2019-03-20T22:33:08.503Z,76.40
2019-03-20T22:38:07.912Z,76.73
2019-03-20T22:43:13.490Z,76.99
2019-03-20T22:48:32.577Z,77.16
2019-03-20T22:53:35.097Z,77.48
2019-03-20T22:58:44.589Z,77.73
2019-03-20T23:03:53.063Z,78.06
2019-03-20T23:08:48.988Z,78.18
2019-03-20T23:13:44.908Z,78.32
2019-03-20T23:18:40.825Z,78.45
2019-03-20T23:23:37.515Z,78.50
2019-03-20T23:28:33.436Z,77.59
2019-03-20T23:33:29.357Z,78.14
2019-03-20T23:38:25.319Z,76.87
2019-03-20T23:43:21.232Z,77.35
2019-03-20T23:48:37.829Z,78.53
2019-03-20T23:53:34.562Z,78.22
2019-03-20T23:58:30.522Z,78.97
